Time;durP1;ratioP1;P1;durP2;ratioP2;P2;SDS_P1;SDS_P2;PMS_P1;PMS_P2;Temp;Humidity;BMP_temperature;BMP_pressure;BME280_temperature;BME280_humidity;BME280_pressure;Samples;Min_cycle;Max_cycle;Signal;HPM_P1;HPM_P2
2024/04/17 00:02:15;;;;;;;16.47;2.73;;;7.10;14.70;;;;;;5151628;27;37408;-80
2024/04/17 00:04:45;;;;;;;19.93;2.53;;;7.20;1.00;;;;;;5186555;27;40561;-79
2024/04/17 00:07:11;;;;;;;9.00;1.70;;;7.30;1.00;;;;;;5159999;27;38722;-80
2024/04/17 00:09:38;;;;;;;13.40;2.23;;;7.40;1.00;;;;;;5213260;27;39479;-81
2024/04/17 00:12:07;;;;;;;14.17;1.80;;;7.40;1.00;;;;;;5156808;27;37014;-81
2024/04/17 00:14:34;;;;;;;12.07;1.90;;;7.50;1.00;;;;;;5182287;27;38152;-80
2024/04/17 00:17:00;;;;;;;7.20;1.70;;;7.50;1.00;;;;;;5160730;27;38605;-80
2024/04/17 00:19:27;;;;;;;7.93;1.47;;;7.50;1.00;;;;;;5163623;27;36662;-80
2024/04/17 00:21:59;;;;;;;12.23;1.50;;;7.50;1.00;;;;;;5211335;27;36025;-81
2024/04/17 00:24:33;;;;;;;7.70;1.30;;;7.60;1.00;;;;;;5158552;27;39351;-79
2024/04/17 00:26:59;;;;;;;8.27;1.80;;;7.60;1.00;;;;;;5158072;27;39364;-80
2024/04/17 00:29:25;;;;;;;4.80;1.00;;;7.60;1.00;;;;;;5157874;27;37830;-80
2024/04/17 00:31:51;;;;;;;8.30;0.93;;;7.60;1.00;;;;;;5157797;27;37887;-80
2024/04/17 00:34:17;;;;;;;4.40;1.20;;;7.70;1.00;;;;;;5151932;27;37917;-80
2024/04/17 00:36:49;;;;;;;5.63;1.07;;;7.60;1.00;;;;;;5163228;27;38692;-79
2024/04/17 00:39:15;;;;;;;8.73;1.20;;;7.70;1.00;;;;;;5214642;27;39311;-80
2024/04/17 00:41:41;;;;;;;6.63;1.00;;;7.70;1.00;;;;;;5162975;27;36485;-80
2024/04/17 00:44:11;;;;;;;3.73;0.90;;;7.70;1.00;;;;;;5156934;27;39269;-80
2024/04/17 00:46:37;;;;;;;8.60;1.60;;;7.70;1.00;;;;;;5158125;27;38468;-81
2024/04/17 00:49:04;;;;;;;4.20;1.23;;;7.70;1.00;;;;;;5213519;27;39163;-80
2024/04/17 00:51:30;;;;;;;3.57;1.10;;;7.70;1.00;;;;;;5162863;27;38134;-80
2024/04/17 00:53:57;;;;;;;10.67;1.70;;;7.50;20.60;;;;;;5154176;27;39298;-80
2024/04/17 00:56:28;;;;;;;3.07;1.00;;;7.40;42.00;;;;;;5156357;27;38820;-80
2024/04/17 00:58:54;;;;;;;8.00;1.00;;;7.30;53.20;;;;;;5152626;27;38223;-79
2024/04/17 01:03:56;;;;;;;3.57;0.90;;;7.20;77.50;;;;;;2322438;22;20027;-79
2024/04/17 01:06:22;;;;;;;5.20;0.90;;;7.10;87.80;;;;;;5172605;27;40298;-79
2024/04/17 01:08:49;;;;;;;4.50;0.67;;;7.10;91.90;;;;;;5175876;27;38375;-79
2024/04/17 01:11:15;;;;;;;3.97;1.30;;;7.00;94.70;;;;;;5176598;27;36846;-79
2024/04/17 01:13:41;;;;;;;4.67;0.70;;;7.00;98.90;;;;;;5173908;27;37567;-79
2024/04/17 01:16:07;;;;;;;3.20;0.90;;;7.00;99.60;;;;;;5174752;27;38443;-79
2024/04/17 01:18:33;;;;;;;1.13;0.60;;;6.90;98.70;;;;;;5171805;27;37346;-79
2024/04/17 01:21:02;;;;;;;2.80;0.73;;;6.80;94.00;;;;;;5181467;27;38318;-79
2024/04/17 01:23:29;;;;;;;1.90;0.70;;;6.80;91.80;;;;;;5172605;27;47500;-80
2024/04/17 01:25:55;;;;;;;2.37;0.80;;;6.80;90.60;;;;;;5180341;27;36651;-79
2024/04/17 01:28:21;;;;;;;4.40;0.67;;;6.80;91.20;;;;;;5171752;27;39606;-79
2024/04/17 01:30:47;;;;;;;4.73;1.23;;;6.80;92.10;;;;;;5177963;27;36258;-79
2024/04/17 01:33:13;;;;;;;4.77;1.03;;;6.80;93.40;;;;;;5168105;27;40066;-79
2024/04/17 01:35:40;;;;;;;4.80;0.93;;;6.70;95.80;;;;;;5179733;27;38138;-80
2024/04/17 01:38:06;;;;;;;2.13;1.30;;;6.80;99.10;;;;;;5175768;27;38487;-79
2024/04/17 01:40:32;;;;;;;3.27;1.90;;;6.80;99.90;;;;;;5178460;27;37463;-79
2024/04/17 01:42:59;;;;;;;5.87;1.23;;;6.80;99.90;;;;;;5172984;27;39822;-79
2024/04/17 01:45:25;;;;;;;1.97;0.90;;;6.90;99.90;;;;;;5171926;27;37425;-79
2024/04/17 01:47:51;;;;;;;4.47;0.90;;;6.80;99.90;;;;;;5168248;27;39440;-78
2024/04/17 01:50:29;;;;;;;5.30;1.17;;;6.80;99.50;;;;;;5163102;27;38170;-79
2024/04/17 01:52:55;;;;;;;6.70;1.70;;;6.70;99.90;;;;;;5184253;27;38532;-78
2024/04/17 01:55:22;;;;;;;4.00;1.00;;;6.70;99.90;;;;;;5172133;27;39137;-79
2024/04/17 01:57:48;;;;;;;5.07;0.90;;;6.70;99.90;;;;;;5171561;27;37058;-79
2024/04/17 02:00:14;;;;;;;2.83;0.97;;;6.60;99.90;;;;;;5174628;27;37990;-78
2024/04/17 02:02:40;;;;;;;6.70;1.03;;;6.60;99.90;;;;;;5170240;27;38973;-78
2024/04/17 02:05:08;;;;;;;3.93;1.13;;;6.60;99.90;;;;;;5170057;27;38269;-79
2024/04/17 02:07:34;;;;;;;6.30;1.00;;;6.50;99.90;;;;;;5174987;27;39056;-78
2024/04/17 02:10:01;;;;;;;4.37;1.13;;;6.60;99.90;;;;;;5176357;27;37627;-78
2024/04/17 02:12:27;;;;;;;3.70;1.00;;;6.60;99.90;;;;;;5167696;27;40849;-79
2024/04/17 02:14:54;;;;;;;7.27;1.70;;;6.60;99.90;;;;;;5184117;27;36769;-79
2024/04/17 02:17:20;;;;;;;7.07;1.00;;;6.60;99.90;;;;;;5174308;27;37728;-79
2024/04/17 02:19:46;;;;;;;4.73;1.33;;;6.60;99.90;;;;;;5177975;27;35529;-78
2024/04/17 02:22:12;;;;;;;8.60;1.60;;;6.60;99.90;;;;;;5177671;27;40458;-79
2024/04/17 02:24:41;;;;;;;8.37;1.60;;;6.60;99.90;;;;;;5196709;27;38764;-79
2024/04/17 02:27:07;;;;;;;7.33;1.70;;;6.60;99.90;;;;;;5196686;27;37941;-79
2024/04/17 02:29:33;;;;;;;10.33;1.97;;;6.60;99.90;;;;;;5195434;27;37396;-78
2024/04/17 02:31:59;;;;;;;16.77;1.87;;;6.60;99.90;;;;;;5190915;27;37508;-79
2024/04/17 02:34:26;;;;;;;11.47;2.20;;;6.70;99.90;;;;;;5185166;27;38417;-77
2024/04/17 02:36:52;;;;;;;10.00;1.80;;;6.70;99.90;;;;;;5177270;27;37293;-79
2024/04/17 02:39:18;;;;;;;15.27;2.33;;;6.70;99.90;;;;;;5177574;27;37123;-78
2024/04/17 02:41:44;;;;;;;11.87;1.97;;;6.60;99.90;;;;;;5176165;27;39598;-78
2024/04/17 02:44:11;;;;;;;11.43;1.93;;;6.60;99.90;;;;;;5172555;27;38369;-78
2024/04/17 02:46:37;;;;;;;13.33;2.53;;;6.60;99.90;;;;;;5169390;27;38070;-78
2024/04/17 02:49:03;;;;;;;11.93;1.70;;;6.60;99.90;;;;;;5169314;27;37593;-78
2024/04/17 02:51:29;;;;;;;13.50;2.37;;;6.60;99.90;;;;;;5173814;27;38629;-79
2024/04/17 02:53:55;;;;;;;13.43;1.90;;;6.60;99.90;;;;;;5171676;27;39727;-79
2024/04/17 02:56:22;;;;;;;16.73;1.70;;;6.50;99.90;;;;;;5167562;27;37763;-79
2024/04/17 02:58:48;;;;;;;15.07;2.20;;;6.50;99.90;;;;;;5167724;27;37510;-79
2024/04/17 03:01:15;;;;;;;13.77;1.70;;;6.40;99.90;;;;;;5163354;27;39117;-80
2024/04/17 03:03:42;;;;;;;11.37;1.90;;;6.40;99.90;;;;;;5169593;27;38447;-80
2024/04/17 03:06:08;;;;;;;10.03;1.80;;;6.50;99.90;;;;;;5176624;27;36573;-79
2024/04/17 03:08:35;;;;;;;18.83;2.40;;;6.50;99.90;;;;;;5174554;27;37732;-80
2024/04/17 03:11:02;;;;;;;11.03;2.53;;;6.50;99.90;;;;;;5203760;27;38383;-80
2024/04/17 03:13:28;;;;;;;15.97;1.97;;;6.40;99.90;;;;;;5182543;27;48303;-80
2024/04/17 03:15:54;;;;;;;17.63;2.27;;;6.40;99.90;;;;;;5178768;27;38589;-80
2024/04/17 03:18:21;;;;;;;12.67;1.77;;;6.30;99.90;;;;;;5182362;27;36057;-79
2024/04/17 03:20:47;;;;;;;9.93;2.13;;;6.30;99.90;;;;;;5179091;27;38183;-80
2024/04/17 03:23:21;;;;;;;18.10;2.57;;;6.30;99.90;;;;;;5181361;27;37490;-79
2024/04/17 03:26:00;;;;;;;15.73;2.47;;;6.30;99.90;;;;;;5182871;27;37313;-79
2024/04/17 03:28:27;;;;;;;15.07;2.57;;;6.30;99.90;;;;;;5176110;27;37719;-80
2024/04/17 03:30:57;;;;;;;13.23;2.23;;;6.30;99.90;;;;;;5174783;27;39553;-80
2024/04/17 03:33:24;;;;;;;21.20;2.20;;;6.20;99.90;;;;;;5170742;27;37642;-81
2024/04/17 03:35:58;;;;;;;15.50;2.23;;;6.20;99.90;;;;;;5172578;27;37557;-79
2024/04/17 03:38:27;;;;;;;16.00;2.10;;;6.10;99.90;;;;;;5175641;27;36421;-80
2024/04/17 03:40:54;;;;;;;14.03;2.80;;;6.10;99.90;;;;;;5168987;27;40454;-79
2024/04/17 03:43:21;;;;;;;11.97;1.80;;;6.10;94.80;;;;;;5169157;27;39787;-80
2024/04/17 03:45:47;;;;;;;15.60;2.53;;;6.10;89.50;;;;;;5161412;27;37252;-80
2024/04/17 03:48:13;;;;;;;15.57;2.20;;;6.00;80.00;;;;;;5167260;27;37925;-80
2024/04/17 03:50:39;;;;;;;14.37;2.23;;;6.10;58.20;;;;;;5174734;27;38710;-80
2024/04/17 03:53:05;;;;;;;17.80;2.33;;;6.00;60.60;;;;;;5178044;27;38704;-79
2024/04/17 03:55:32;;;;;;;16.33;1.80;;;5.90;56.70;;;;;;5175689;27;38933;-80
2024/04/17 03:57:58;;;;;;;22.37;2.90;;;5.90;52.30;;;;;;5173852;27;35999;-80
2024/04/17 04:00:24;;;;;;;10.40;1.87;;;5.90;46.20;;;;;;5174231;27;40114;-79
2024/04/17 04:02:50;;;;;;;12.83;2.37;;;6.00;29.30;;;;;;5174033;27;38915;-80
2024/04/17 04:05:16;;;;;;;16.23;2.73;;;6.00;30.50;;;;;;5173573;27;39741;-79
2024/04/17 04:07:42;;;;;;;15.33;2.23;;;6.10;37.10;;;;;;5174805;27;36113;-80
2024/04/17 04:10:08;;;;;;;12.13;2.00;;;6.10;37.90;;;;;;5174713;27;39364;-80
2024/04/17 04:12:35;;;;;;;16.07;2.80;;;6.10;34.60;;;;;;5171668;27;38644;-79
2024/04/17 04:15:01;;;;;;;17.47;2.53;;;6.10;36.90;;;;;;5173116;27;38283;-80
2024/04/17 04:17:27;;;;;;;10.93;1.77;;;6.10;27.30;;;;;;5170038;27;36123;-79
2024/04/17 04:19:53;;;;;;;16.77;2.37;;;6.20;25.20;;;;;;5167259;27;39265;-80
2024/04/17 04:22:19;;;;;;;15.60;1.97;;;6.20;25.10;;;;;;5168708;27;35587;-79
2024/04/17 04:24:45;;;;;;;15.90;2.27;;;6.30;30.00;;;;;;5173356;27;39105;-80
2024/04/17 04:27:12;;;;;;;12.30;1.87;;;6.40;18.40;;;;;;5175975;27;37388;-80
2024/04/17 04:29:38;;;;;;;16.40;3.60;;;6.40;19.70;;;;;;5176082;27;39084;-79
2024/04/17 04:32:05;;;;;;;15.93;2.30;;;6.40;11.90;;;;;;5163110;27;38166;-80
2024/04/17 04:34:31;;;;;;;13.43;3.20;;;6.40;2.20;;;;;;5161554;27;38481;-80
2024/04/17 04:36:57;;;;;;;10.43;2.43;;;6.50;4.00;;;;;;5165678;27;39073;-79
2024/04/17 04:39:24;;;;;;;9.50;1.97;;;6.40;1.00;;;;;;5172788;27;40563;-81
2024/04/17 04:41:50;;;;;;;10.70;2.20;;;6.40;1.00;;;;;;5170020;27;37879;-80
2024/04/17 04:44:16;;;;;;;13.57;2.30;;;6.40;2.10;;;;;;5169238;27;36466;-80
2024/04/17 04:46:42;;;;;;;11.50;2.23;;;6.40;2.00;;;;;;5170078;27;36631;-80
2024/04/17 04:49:08;;;;;;;7.90;1.50;;;6.40;6.20;;;;;;5170735;27;40762;-81
2024/04/17 04:51:35;;;;;;;9.70;1.70;;;6.40;1.00;;;;;;5168457;27;38664;-81
2024/04/17 04:54:01;;;;;;;13.27;1.83;;;6.50;1.00;;;;;;5186508;27;37374;-81
2024/04/17 04:56:27;;;;;;;8.20;2.20;;;6.40;1.00;;;;;;5186290;27;37111;-82
2024/04/17 04:58:54;;;;;;;10.77;1.67;;;6.50;1.00;;;;;;5190493;27;39138;-82
2024/04/17 05:01:21;;;;;;;12.60;1.83;;;6.40;1.00;;;;;;5191441;27;36932;-82
2024/04/17 05:03:47;;;;;;;11.07;1.90;;;6.40;1.00;;;;;;5174024;27;38329;-82
2024/04/17 05:06:20;;;;;;;12.93;1.10;;;6.40;1.00;;;;;;5198153;27;35916;-81
2024/04/17 05:08:46;;;;;;;10.50;1.80;;;6.40;1.00;;;;;;5200397;27;39040;-81
2024/04/17 05:11:12;;;;;;;14.40;1.87;;;6.40;1.00;;;;;;5199991;27;36944;-81
2024/04/17 05:13:38;;;;;;;12.43;1.93;;;6.40;1.00;;;;;;5197526;27;37039;-81
2024/04/17 05:16:06;;;;;;;20.40;2.93;;;6.50;1.00;;;;;;5200003;27;37257;-81
2024/04/17 05:18:32;;;;;;;12.93;1.83;;;6.50;1.00;;;;;;5198908;27;38939;-82
2024/04/17 05:20:58;;;;;;;12.33;1.90;;;6.60;1.00;;;;;;5181066;27;39734;-81
2024/04/17 05:23:24;;;;;;;9.67;1.93;;;6.70;1.00;;;;;;5181358;27;39103;-82
2024/04/17 05:25:50;;;;;;;12.50;2.30;;;6.90;1.00;;;;;;5186031;27;37499;-81
2024/04/17 05:28:16;;;;;;;15.13;2.17;;;7.00;1.00;;;;;;5185664;27;37518;-81
2024/04/17 05:30:42;;;;;;;9.63;2.07;;;7.10;1.00;;;;;;5176194;27;38651;-82
2024/04/17 05:33:09;;;;;;;9.50;1.80;;;7.20;1.00;;;;;;5182113;27;36502;-80
2024/04/17 05:35:36;;;;;;;14.93;1.80;;;7.20;1.00;;;;;;5181668;27;36370;-82
2024/04/17 05:38:02;;;;;;;17.40;3.67;;;7.20;1.00;;;;;;5190914;27;39165;-81
2024/04/17 05:40:28;;;;;;;10.03;1.97;;;7.20;1.00;;;;;;5196889;27;39597;-81
2024/04/17 05:42:55;;;;;;;14.93;2.00;;;7.20;1.00;;;;;;5200156;27;37714;-82
2024/04/17 05:45:22;;;;;;;8.83;1.67;;;7.20;1.00;;;;;;5199748;27;36875;-81
2024/04/17 05:47:48;;;;;;;21.40;3.07;;;7.20;1.00;;;;;;5180452;27;37463;-82
2024/04/17 05:50:24;;;;;;;14.80;2.17;;;7.20;1.00;;;;;;5189809;27;38997;-82
2024/04/17 05:52:59;;;;;;;10.63;1.87;;;7.30;1.00;;;;;;5223682;27;37878;-83
2024/04/17 05:55:41;;;;;;;8.83;1.60;;;7.30;1.00;;;;;;5171377;27;38670;-82
2024/04/17 05:58:07;;;;;;;10.38;1.48;;;7.30;1.00;;;;;;5197039;27;38574;-82
2024/04/17 06:00:34;;;;;;;9.10;1.57;;;7.40;1.00;;;;;;5198594;27;39626;-82
2024/04/17 06:03:00;;;;;;;10.63;1.67;;;7.40;1.00;;;;;;5195442;27;36511;-83
2024/04/17 06:05:26;;;;;;;13.53;1.87;;;7.40;1.00;;;;;;5200368;27;38687;-82
2024/04/17 06:07:54;;;;;;;9.60;2.00;;;7.40;1.00;;;;;;5242717;22;38503;-81
2024/04/17 06:10:25;;;;;;;17.97;1.63;;;7.40;1.00;;;;;;5146194;27;37613;-82
2024/04/17 06:13:12;;;;;;;16.87;2.30;;;7.40;1.00;;;;;;5158723;27;38494;-82
2024/04/17 06:15:42;;;;;;;8.60;1.70;;;7.50;1.00;;;;;;5173496;27;48130;-80
2024/04/17 06:18:18;;;;;;;8.93;1.47;;;7.50;1.00;;;;;;5178741;27;39260;-80
2024/04/17 06:20:45;;;;;;;7.23;1.10;;;7.50;1.00;;;;;;5171476;27;37739;-80
2024/04/17 06:23:20;;;;;;;6.57;0.97;;;7.50;1.00;;;;;;5162764;27;39475;-81
2024/04/17 06:25:49;;;;;;;12.23;1.73;;;7.60;1.00;;;;;;5158480;27;38540;-81
2024/04/17 06:28:46;;;;;;;13.70;2.10;;;7.70;1.00;;;;;;5154811;27;38726;-81
2024/04/17 06:31:15;;;;;;;3.50;0.90;;;7.90;1.00;;;;;;5174258;27;39239;-81
2024/04/17 06:33:48;;;;;;;4.73;0.90;;;7.70;1.00;;;;;;5165832;27;38755;-80
2024/04/17 06:36:15;;;;;;;3.27;0.73;;;7.60;1.00;;;;;;5157362;27;37193;-81
2024/04/17 06:38:47;;;;;;;5.87;1.37;;;7.50;1.00;;;;;;5157111;27;39196;-81
2024/04/17 06:41:16;;;;;;;3.67;1.00;;;7.50;1.00;;;;;;5138094;27;37902;-81
2024/04/17 06:43:50;;;;;;;1.53;0.67;;;7.50;1.00;;;;;;5172156;27;38764;-81
2024/04/17 06:46:37;;;;;;;6.47;0.97;;;7.60;1.00;;;;;;5163746;27;36598;-82
2024/04/17 06:49:03;;;;;;;5.10;1.07;;;7.60;1.00;;;;;;5143370;27;39363;-76
2024/04/17 06:51:40;;;;;;;11.27;1.53;;;7.70;1.00;;;;;;5129297;27;37196;-81
2024/04/17 06:54:40;;;;;;;7.07;1.20;;;7.70;1.00;;;;;;5156888;27;38584;-81
2024/04/17 06:57:20;;;;;;;10.87;1.20;;;7.80;1.00;;;;;;5188900;27;37648;-81
2024/04/17 07:00:17;;;;;;;9.23;1.97;;;7.90;1.00;;;;;;5154156;27;39421;-82
2024/04/17 07:03:19;;;;;;;9.37;1.70;;;7.80;1.00;;;;;;5144567;27;38996;-81
2024/04/17 07:06:22;;;;;;;8.23;1.27;;;7.70;1.00;;;;;;5162894;27;39419;-83
2024/04/17 07:09:06;;;;;;;6.70;1.17;;;7.30;1.00;;;;;;5677783;22;50133;-83
2024/04/17 07:12:29;;;;;;;4.73;0.97;;;7.00;1.00;;;;;;5281947;22;48737;-82
2024/04/17 07:14:58;;;;;;;4.63;0.90;;;6.60;1.00;;;;;;5195974;27;49172;-82
2024/04/17 07:17:28;;;;;;;4.57;0.90;;;6.50;19.70;;;;;;5203894;27;38261;-81
2024/04/17 07:19:54;;;;;;;3.30;0.70;;;6.40;32.50;;;;;;5195093;27;34138;-81
2024/04/17 07:24:59;;;;;;;3.40;0.90;;;6.30;60.20;;;;;;5164581;22;20014;-78
2024/04/17 07:27:29;;;;;;;4.20;0.70;;;6.30;68.80;;;;;;5121326;27;37839;-79
2024/04/17 07:30:10;;;;;;;2.37;0.70;;;6.40;80.20;;;;;;5134710;27;36357;-79
2024/04/17 07:32:48;;;;;;;3.73;0.67;;;6.50;69.00;;;;;;5155749;27;48952;-80
2024/04/17 07:35:15;;;;;;;1.53;0.80;;;6.60;62.40;;;;;;5153945;27;38243;-82
2024/04/17 07:37:50;;;;;;;2.00;0.70;;;6.70;59.50;;;;;;5152979;27;38536;-80
2024/04/17 07:40:18;;;;;;;3.77;0.50;;;6.80;48.90;;;;;;5119014;27;36710;-81
2024/04/17 07:43:21;;;;;;;0.93;0.70;;;6.90;49.50;;;;;;5105975;27;37874;-81
2024/04/17 07:46:16;;;;;;;3.27;0.60;;;7.10;44.40;;;;;;5124704;27;49302;-81
2024/04/17 07:48:44;;;;;;;2.40;0.80;;;7.20;27.70;;;;;;5100181;27;50604;-83
2024/04/17 07:51:18;;;;;;;2.23;0.50;;;7.40;14.40;;;;;;5123175;27;36945;-81
2024/04/17 07:53:56;;;;;;;4.43;0.80;;;7.80;1.00;;;;;;5138929;27;40309;-82
2024/04/17 07:56:30;;;;;;;2.50;0.50;;;8.20;1.00;;;;;;5096122;27;39668;-81
2024/04/17 08:06:05;;;;;;;1.87;0.47;;;9.00;1.00;;;;;;5115018;27;50753;-82
2024/04/17 08:08:32;;;;;;;4.07;0.70;;;9.50;1.00;;;;;;5097183;27;49630;-82
2024/04/17 08:11:09;;;;;;;3.87;0.73;;;9.70;1.00;;;;;;5136930;27;39340;-81
2024/04/17 08:17:48;;;;;;;1.30;0.80;;;10.00;1.00;;;;;;5149643;27;50826;-81
2024/04/17 08:20:54;;;;;;;0.90;0.50;;;10.20;1.00;;;;;;5143167;27;50226;-81
2024/04/17 08:23:49;;;;;;;2.08;0.80;;;10.70;99.90;;;;;;5149586;27;39569;-81
2024/04/17 08:26:27;;;;;;;2.93;0.60;;;10.60;99.90;;;;;;5145019;27;40152;-81
2024/04/17 08:29:24;;;;;;;3.28;0.95;;;10.70;1.00;;;;;;5139095;27;40163;-81
2024/04/17 08:32:10;;;;;;;2.65;0.65;;;10.80;99.90;;;;;;5098417;27;38673;-81
2024/04/17 08:35:04;;;;;;;3.35;0.60;;;11.20;1.00;;;;;;5100512;27;49498;-81
2024/04/17 08:37:50;;;;;;;3.45;0.52;;;11.30;1.00;;;;;;5072449;27;37927;-81
2024/04/17 08:40:48;;;;;;;1.83;0.50;;;11.50;1.00;;;;;;5060621;27;40117;-81
2024/04/17 08:43:24;;;;;;;3.08;0.80;;;11.10;1.00;;;;;;5164441;27;38188;-81
2024/04/17 08:46:10;;;;;;;7.38;1.25;;;10.20;99.90;;;;;;5112013;27;38466;-80
2024/04/17 08:48:53;;;;;;;3.03;0.60;;;9.60;1.00;;;;;;5097171;27;50449;-81
2024/04/17 08:52:17;;;;;;;5.15;1.23;;;9.20;1.00;;;;;;5128301;27;40454;-81
2024/04/17 08:54:47;;;;;;;2.93;0.67;;;9.00;1.00;;;;;;5090823;27;49231;-82
2024/04/17 08:57:49;;;;;;;5.37;1.20;;;9.10;1.00;;;;;;5111029;27;36748;-82
2024/04/17 09:00:18;;;;;;;5.20;0.90;;;9.00;1.00;;;;;;5095896;27;37437;-81
2024/04/17 09:02:56;;;;;;;5.03;1.63;;;8.70;1.00;;;;;;5022056;28;40039;-81
2024/04/17 09:05:37;;;;;;;1.33;0.30;;;8.60;1.00;;;;;;5007697;28;38650;-82
2024/04/17 09:08:48;;;;;;;2.83;0.60;;;8.30;1.00;;;;;;5095836;27;38333;-81
2024/04/17 09:11:18;;;;;;;2.37;0.57;;;8.10;1.00;;;;;;5061532;27;38597;-81
2024/04/17 09:16:43;;;;;;;7.27;0.97;;;7.80;1.00;;;;;;5879766;22;20019;-81
2024/04/17 09:19:09;;;;;;;2.70;1.23;;;7.30;1.00;;;;;;5201945;27;37986;-81
2024/04/17 09:21:42;;;;;;;3.20;0.80;;;6.90;1.00;;;;;;5203650;27;38673;-82
2024/04/17 09:24:18;;;;;;;5.10;0.77;;;6.60;22.90;;;;;;5172551;27;41729;-82
2024/04/17 09:29:32;;;;;;;2.47;0.90;;;6.10;75.80;;;;;;5168899;27;20014;-83
2024/04/17 09:31:58;;;;;;;3.17;1.20;;;6.00;88.70;;;;;;5165443;27;38631;-83
2024/04/17 09:34:24;;;;;;;5.73;1.00;;;6.00;92.30;;;;;;5146840;22;39186;-77
2024/04/17 09:36:53;;;;;;;4.43;0.90;;;6.10;96.60;;;;;;5240591;22;40341;-82
2024/04/17 09:39:29;;;;;;;3.83;1.03;;;6.30;99.90;;;;;;5184184;27;40252;-82
2024/04/17 09:42:15;;;;;;;3.37;0.87;;;6.40;99.90;;;;;;5195797;27;37400;-83
2024/04/17 09:44:52;;;;;;;4.27;1.23;;;6.40;99.90;;;;;;5195035;27;48598;-81
2024/04/17 09:47:31;;;;;;;4.87;0.90;;;6.40;99.90;;;;;;5197991;27;40309;-82
2024/04/17 09:50:03;;;;;;;1.87;0.63;;;6.50;99.90;;;;;;5200916;27;38148;-81
2024/04/17 09:52:30;;;;;;;2.72;0.93;;;6.60;99.90;;;;;;5200476;27;48724;-81
2024/04/17 09:54:57;;;;;;;3.03;0.83;;;6.60;99.90;;;;;;5197213;27;39157;-82
2024/04/17 09:57:33;;;;;;;2.87;0.90;;;6.70;99.90;;;;;;5189781;27;38177;-81
2024/04/17 10:00:00;;;;;;;5.50;0.90;;;6.80;99.90;;;;;;5201236;27;37306;-81
2024/04/17 10:02:28;;;;;;;2.57;0.87;;;7.00;99.90;;;;;;5201005;27;37373;-81
2024/04/17 10:05:02;;;;;;;4.97;1.50;;;7.20;99.90;;;;;;5195720;27;38727;-82
2024/04/17 10:07:32;;;;;;;3.20;1.47;;;7.50;99.90;;;;;;5196779;27;38842;-81
2024/04/17 10:10:00;;;;;;;5.03;1.10;;;8.00;99.90;;;;;;5198475;27;37921;-81
2024/04/17 10:12:28;;;;;;;4.33;1.40;;;8.30;99.40;;;;;;5201521;27;36934;-81
2024/04/17 10:15:01;;;;;;;4.90;1.30;;;8.60;86.10;;;;;;5195413;27;39266;-81
2024/04/17 10:17:28;;;;;;;4.23;1.17;;;8.90;30.10;;;;;;5201588;27;39498;-80
2024/04/17 10:19:57;;;;;;;2.30;0.57;;;9.60;15.70;;;;;;5657144;22;39562;-78
2024/04/17 10:22:33;;;;;;;6.03;0.80;;;10.10;1.00;;;;;;5139075;27;37177;-80
2024/04/17 10:25:12;;;;;;;0.98;0.70;;;10.30;1.00;;;;;;5130330;27;38965;-79
2024/04/17 10:30:20;;;;;;;1.83;0.50;;;10.40;1.00;;;;;;6002686;22;20027;-80
2024/04/17 10:32:46;;;;;;;1.95;0.50;;;10.80;1.00;;;;;;5161225;27;38283;-80
2024/04/17 10:35:17;;;;;;;3.70;0.43;;;11.10;1.00;;;;;;5146824;27;39624;-76
2024/04/17 10:37:49;;;;;;;1.63;0.55;;;11.10;1.00;;;;;;5186941;27;39495;-80
2024/04/17 10:40:18;;;;;;;3.87;0.50;;;10.70;1.00;;;;;;5197549;27;40496;-80
2024/04/17 10:42:46;;;;;;;6.43;0.60;;;10.10;1.00;;;;;;5193765;27;36535;-78
2024/04/17 10:45:19;;;;;;;4.80;0.90;;;9.90;1.00;;;;;;5201524;27;39108;-80
2024/04/17 10:47:51;;;;;;;1.33;0.80;;;9.40;1.00;;;;;;5197809;27;39867;-79
2024/04/17 10:50:32;;;;;;;1.45;0.50;;;8.80;1.00;;;;;;5201712;27;39611;-79
2024/04/17 10:53:03;;;;;;;3.83;1.00;;;8.40;1.00;;;;;;5202865;27;37487;-81
2024/04/17 10:55:34;;;;;;;1.63;0.40;;;8.10;1.00;;;;;;5179667;27;49229;-79
2024/04/17 10:58:07;;;;;;;4.07;0.77;;;7.80;1.00;;;;;;5178171;27;39659;-78
2024/04/17 11:01:01;;;;;;;1.13;0.70;;;7.60;1.00;;;;;;5219596;27;48527;-80
2024/04/17 11:03:41;;;;;;;2.87;0.80;;;7.40;1.00;;;;;;5194381;27;38783;-81
2024/04/17 11:06:25;;;;;;;1.57;0.70;;;7.50;1.00;;;;;;5203379;27;39932;-82
2024/04/17 11:09:07;;;;;;;6.50;0.75;;;7.50;1.00;;;;;;5176164;27;39143;-82
2024/04/17 11:11:44;;;;;;;5.33;0.50;;;7.60;1.00;;;;;;5210839;27;48913;-82
2024/04/17 11:14:15;;;;;;;1.80;0.57;;;8.00;1.00;;;;;;5175338;27;38212;-82
2024/04/17 11:16:45;;;;;;;2.03;0.50;;;8.40;1.00;;;;;;5179374;27;40368;-81
2024/04/17 11:19:32;;;;;;;2.43;0.60;;;9.00;1.00;;;;;;5204250;27;39515;-82
2024/04/17 11:25:21;;;;;;;5.60;0.87;;;9.10;1.00;;;;;;5227532;27;49822;-81
2024/04/17 11:27:48;;;;;;;1.83;0.50;;;8.90;1.00;;;;;;5320538;22;39697;-82
2024/04/17 11:30:19;;;;;;;3.07;0.60;;;8.50;1.00;;;;;;5201867;27;38311;-81
2024/04/17 11:32:55;;;;;;;2.60;0.33;;;8.30;1.00;;;;;;5191139;27;38263;-82
2024/04/17 11:35:36;;;;;;;1.10;0.23;;;8.00;1.00;;;;;;5464967;22;38899;-82
2024/04/17 11:38:18;;;;;;;0.87;0.40;;;7.80;1.00;;;;;;5155044;27;39603;-81
2024/04/17 11:40:59;;;;;;;1.20;0.50;;;7.80;1.00;;;;;;5185794;27;39564;-81
2024/04/17 11:43:43;;;;;;;2.60;0.60;;;8.10;1.00;;;;;;5156506;27;50475;-82
2024/04/17 11:47:16;;;;;;;;;;;;;;;;;;;;;
2024/04/17 11:50:33;;;;;;;2.00;0.50;;;9.20;1.00;;;;;;5559576;22;1095534;31
2024/04/17 11:53:14;;;;;;;2.00;0.40;;;9.60;1.00;;;;;;5364953;22;48872;-81
2024/04/17 11:55:52;;;;;;;0.67;0.40;;;9.80;1.00;;;;;;5520044;22;49988;-81
2024/04/17 11:58:28;;;;;;;0.77;0.63;;;10.00;1.00;;;;;;5462107;22;38489;-80
2024/04/17 12:01:00;;;;;;;0.95;0.45;;;10.60;1.00;;;;;;5207435;27;37777;-79
2024/04/17 12:03:31;;;;;;;;;;;10.70;99.90;;;;;;5202481;27;42363;-80
2024/04/17 12:06:51;;;;;;;1.08;0.40;;;10.70;1.00;;;;;;5203227;27;38207;-79
2024/04/17 12:09:49;;;;;;;0.95;0.43;;;11.10;99.90;;;;;;5174244;27;50175;-82
2024/04/17 12:12:54;;;;;;;1.85;0.47;;;11.10;1.00;;;;;;5206543;27;38665;-82
2024/04/17 12:15:42;;;;;;;2.00;0.40;;;11.30;99.90;;;;;;5188972;27;38305;-81
2024/04/17 12:22:10;;;;;;;1.40;0.40;;;11.50;1.00;;;;;;5135409;27;37193;-80
2024/04/17 12:27:54;;;;;;;1.50;0.32;;;10.70;1.00;;;;;;5224478;27;50822;-79
2024/04/17 12:30:20;;;;;;;4.22;0.40;;;10.40;99.90;;;;;;5136131;22;37007;-82
2024/04/17 12:32:59;;;;;;;1.83;0.70;;;10.20;1.00;;;;;;5134978;27;35814;-85
2024/04/17 12:35:29;;;;;;;1.25;0.30;;;10.10;1.00;;;;;;5142141;27;37848;-85
2024/04/17 12:43:23;;;;;;;2.35;0.95;;;10.10;1.00;;;;;;5177775;27;38426;-77
2024/04/17 12:45:49;;;;;;;3.08;0.93;;;10.20;99.90;;;;;;5189142;27;38233;-77
2024/04/17 12:48:16;;;;;;;1.27;0.63;;;10.20;1.00;;;;;;5183708;27;38335;-78
2024/04/17 12:50:50;;;;;;;1.30;0.43;;;10.20;1.00;;;;;;5168435;27;38633;-77
2024/04/17 12:53:17;;;;;;;3.45;0.80;;;10.30;99.90;;;;;;5166666;27;37613;-78
2024/04/17 12:55:53;;;;;;;3.38;0.50;;;10.30;99.90;;;;;;5165211;27;37586;-77
2024/04/17 12:58:21;;;;;;;4.47;0.70;;;10.60;99.90;;;;;;5159633;27;37234;-78
2024/04/17 13:00:48;;;;;;;1.67;0.55;;;10.70;1.00;;;;;;5172413;27;38955;-77
2024/04/17 13:03:14;;;;;;;1.60;0.30;;;10.80;99.90;;;;;;5168603;27;37388;-78
2024/04/17 13:05:40;;;;;;;1.92;0.43;;;10.80;99.90;;;;;;5166090;27;37996;-78
2024/04/17 13:08:06;;;;;;;4.05;0.40;;;10.80;99.90;;;;;;5166485;27;38635;-78
2024/04/17 13:10:33;;;;;;;2.17;0.50;;;10.70;1.00;;;;;;5168887;27;37157;-78
2024/04/17 13:12:59;;;;;;;1.77;0.50;;;10.60;99.90;;;;;;5162246;27;38385;-78
2024/04/17 13:15:25;;;;;;;5.72;0.80;;;10.80;99.90;;;;;;5164872;27;38321;-77
2024/04/17 13:17:52;;;;;;;1.40;0.47;;;10.90;99.90;;;;;;5167544;27;37034;-78
2024/04/17 13:20:18;;;;;;;2.53;0.60;;;10.80;1.00;;;;;;5166835;27;39138;-78
2024/04/17 13:22:44;;;;;;;1.60;0.60;;;10.80;99.90;;;;;;5171775;27;35991;-78
2024/04/17 13:25:11;;;;;;;2.78;0.57;;;10.80;1.00;;;;;;5167212;27;39015;-78
2024/04/17 13:27:39;;;;;;;3.40;0.68;;;10.70;1.00;;;;;;5155713;27;38762;-78
2024/04/17 13:30:06;;;;;;;3.95;0.60;;;10.90;99.90;;;;;;5164997;27;38485;-78
2024/04/17 13:32:32;;;;;;;3.03;0.77;;;10.90;99.90;;;;;;5164740;27;38347;-78
2024/04/17 13:34:58;;;;;;;1.13;0.45;;;10.60;99.90;;;;;;5164767;27;38012;-78
2024/04/17 13:37:25;;;;;;;4.82;0.90;;;10.30;1.00;;;;;;5162170;27;37159;-77
2024/04/17 13:39:52;;;;;;;3.70;0.65;;;9.50;1.00;;;;;;5167189;27;37790;-78
2024/04/17 13:42:19;;;;;;;1.25;0.25;;;9.00;1.00;;;;;;5162460;27;37618;-77
2024/04/17 13:44:46;;;;;;;0.30;0.10;;;9.00;1.00;;;;;;5165716;27;38602;-77
2024/04/17 13:47:15;;;;;;;0.80;0.27;;;8.50;99.90;;;;;;5160376;27;38485;-79
2024/04/17 13:49:41;;;;;;;1.80;0.37;;;8.20;1.00;;;;;;5166976;27;37158;-78
2024/04/17 13:52:07;;;;;;;2.93;0.23;;;7.90;1.00;;;;;;5169368;27;36030;-79
2024/04/17 13:54:33;;;;;;;4.03;0.40;;;7.70;1.00;;;;;;5172286;27;38282;-78
2024/04/17 13:56:59;;;;;;;4.17;0.53;;;7.50;1.00;;;;;;5156703;27;37444;-78
2024/04/17 13:59:25;;;;;;;2.37;0.63;;;7.10;1.00;;;;;;5165720;27;38470;-78
2024/04/17 14:01:52;;;;;;;2.10;0.40;;;6.70;1.00;;;;;;5172909;27;36833;-78
2024/04/17 14:04:18;;;;;;;2.90;0.50;;;6.60;27.60;;;;;;5170682;27;38604;-78
2024/04/17 14:06:44;;;;;;;1.43;0.30;;;6.40;43.70;;;;;;5168520;27;38418;-78